createdAt,value
2018-06-05T00:01:58.281Z,17.07
2018-06-05T00:04:27.854Z,17.13
2018-06-05T00:06:57.482Z,17.63
2018-06-05T00:09:27.120Z,19.00
2018-06-05T00:11:56.711Z,19.77
2018-06-05T00:14:26.304Z,16.97
2018-06-05T00:16:55.914Z,17.23
2018-06-05T00:19:25.542Z,17.33
2018-06-05T00:21:55.153Z,17.70
2018-06-05T00:24:24.724Z,17.57
2018-06-05T00:26:54.013Z,18.30
2018-06-05T00:29:23.596Z,18.53
2018-06-05T00:31:53.226Z,18.60
2018-06-05T00:34:22.815Z,18.53
2018-06-05T00:36:52.355Z,18.67
2018-06-05T00:39:21.948Z,19.77
2018-06-05T00:41:51.508Z,18.80
2018-06-05T00:44:21.090Z,19.40
2018-06-05T00:46:50.737Z,18.23
2018-06-05T00:49:20.322Z,18.83
2018-06-05T00:52:05.678Z,19.30
2018-06-05T00:54:35.306Z,18.83
2018-06-05T00:57:04.953Z,18.67
2018-06-05T00:59:34.555Z,18.07
2018-06-05T01:02:04.303Z,18.87
2018-06-05T01:04:33.890Z,19.27
2018-06-05T01:07:03.538Z,18.40
2018-06-05T01:09:33.243Z,18.97
2018-06-05T01:12:05.728Z,17.87
2018-06-05T01:14:35.384Z,18.23
2018-06-05T01:17:04.971Z,17.77
2018-06-05T01:19:34.614Z,18.63
2018-06-05T01:22:04.406Z,17.50
2018-06-05T01:24:34.031Z,18.90
2018-06-05T01:27:03.720Z,18.13
2018-06-05T01:29:33.244Z,18.17
2018-06-05T01:32:02.823Z,18.33
2018-06-05T01:34:32.384Z,18.60
2018-06-05T01:37:01.993Z,16.63
2018-06-05T01:39:31.614Z,19.03
2018-06-05T01:42:01.213Z,18.57
2018-06-05T01:44:30.877Z,18.13
2018-06-05T01:47:00.532Z,18.47
2018-06-05T01:49:35.156Z,19.60
2018-06-05T01:52:04.847Z,18.53
2018-06-05T01:54:34.467Z,18.33
2018-06-05T01:57:04.104Z,18.63
2018-06-05T01:59:33.736Z,18.43
2018-06-05T02:02:03.295Z,20.27
2018-06-05T02:04:32.848Z,19.07
2018-06-05T02:07:02.466Z,20.90
2018-06-05T02:09:32.058Z,19.13
2018-06-05T02:12:01.694Z,19.43
2018-06-05T02:14:31.350Z,20.43
2018-06-05T02:17:00.976Z,20.27
2018-06-05T02:19:30.610Z,20.37
2018-06-05T02:22:00.272Z,20.37
2018-06-05T02:24:29.838Z,20.37
2018-06-05T02:26:59.458Z,20.17
2018-06-05T02:29:29.021Z,21.03
2018-06-05T02:31:58.666Z,21.37
2018-06-05T02:34:28.392Z,21.87
2018-06-05T02:36:58.024Z,20.43
2018-06-05T02:39:27.808Z,20.33
2018-06-05T02:41:57.457Z,21.33
2018-06-05T02:44:26.745Z,20.90
2018-06-05T02:46:56.357Z,21.50
2018-06-05T02:49:25.970Z,21.20
2018-06-05T02:51:55.571Z,21.90
2018-06-05T02:54:25.270Z,22.03
2018-06-05T02:56:55.012Z,23.03
2018-06-05T02:59:24.580Z,22.03
2018-06-05T03:01:54.171Z,21.23
2018-06-05T03:04:23.816Z,21.60
2018-06-05T03:06:53.378Z,21.83
2018-06-05T03:09:22.957Z,20.53
2018-06-05T03:11:52.593Z,20.47
2018-06-05T03:14:22.159Z,21.63
2018-06-05T03:16:51.712Z,20.63
2018-06-05T03:19:21.409Z,20.50
2018-06-05T03:21:51.116Z,22.30
2018-06-05T03:24:20.754Z,19.87
2018-06-05T03:26:50.361Z,19.47
2018-06-05T03:29:19.995Z,20.73
2018-06-05T03:31:49.604Z,19.53
2018-06-05T03:34:19.221Z,19.97
2018-06-05T03:36:48.778Z,19.93
2018-06-05T03:39:18.444Z,20.53
2018-06-05T03:41:48.069Z,20.10
2018-06-05T03:44:17.623Z,20.70
2018-06-05T03:46:47.575Z,18.37
2018-06-05T03:49:17.162Z,18.70
2018-06-05T03:51:46.966Z,18.60
2018-06-05T03:54:16.214Z,18.50
2018-06-05T03:56:45.836Z,18.77
2018-06-05T03:59:15.483Z,18.20
2018-06-05T04:01:45.733Z,18.00
2018-06-05T04:04:15.363Z,18.23
2018-06-05T04:06:45.981Z,19.03
2018-06-05T04:09:15.548Z,18.37
2018-06-05T04:11:45.218Z,18.30
2018-06-05T04:14:14.813Z,16.77
2018-06-05T04:16:46.120Z,18.60
2018-06-05T04:19:15.750Z,18.20
2018-06-05T04:21:46.050Z,16.90
2018-06-05T04:24:15.651Z,16.40
2018-06-05T04:26:45.600Z,16.80
2018-06-05T04:29:15.183Z,16.87
2018-06-05T04:31:45.449Z,16.00
2018-06-05T04:34:15.010Z,16.60
2018-06-05T04:36:45.620Z,17.10
2018-06-05T04:39:15.195Z,16.07
2018-06-05T04:41:45.334Z,16.57
2018-06-05T04:44:14.951Z,15.23
2018-06-05T04:46:46.233Z,16.03
2018-06-05T04:49:15.779Z,17.00
2018-06-05T04:51:48.786Z,16.77
2018-06-05T04:54:18.428Z,15.77
2018-06-05T04:56:48.044Z,15.83
2018-06-05T04:59:17.603Z,14.53
2018-06-05T05:01:47.620Z,14.97
2018-06-05T05:04:17.278Z,13.97
2018-06-05T05:06:47.379Z,15.50
2018-06-05T05:09:20.212Z,14.30
2018-06-05T05:11:49.987Z,15.83
2018-06-05T05:14:19.624Z,15.70
2018-06-05T05:16:49.644Z,14.87
2018-06-05T05:19:19.279Z,15.87
2018-06-05T05:21:48.987Z,14.50
2018-06-05T05:24:18.650Z,14.10
2018-06-05T05:26:49.131Z,14.67
2018-06-05T05:29:18.793Z,15.17
2018-06-05T05:31:49.607Z,14.83
2018-06-05T05:34:19.255Z,14.70
2018-06-05T05:36:49.263Z,15.23
2018-06-05T05:39:18.965Z,14.50
2018-06-05T05:41:49.083Z,13.87
2018-06-05T05:44:18.732Z,13.93
2018-06-05T05:46:49.782Z,14.93
2018-06-05T05:49:19.456Z,14.93
2018-06-05T05:51:49.539Z,14.83
2018-06-05T05:54:19.180Z,13.73
2018-06-05T05:56:49.970Z,14.33
2018-06-05T05:59:19.685Z,14.27
2018-06-05T06:01:50.432Z,14.47
2018-06-05T06:04:20.036Z,14.23
2018-06-05T06:06:50.300Z,14.40
2018-06-05T06:09:19.933Z,13.37
2018-06-05T06:11:49.988Z,12.90
2018-06-05T06:14:19.677Z,14.17
2018-06-05T06:16:49.732Z,13.40
2018-06-05T06:19:19.450Z,13.17
2018-06-05T06:21:49.548Z,13.83
2018-06-05T06:24:19.168Z,14.07
2018-06-05T06:26:49.376Z,15.27
2018-06-05T06:29:18.954Z,14.53
2018-06-05T06:31:49.140Z,15.53
2018-06-05T06:34:18.709Z,14.93
2018-06-05T06:36:49.079Z,14.83
2018-06-05T06:39:18.716Z,15.13
2018-06-05T06:41:48.676Z,15.30
2018-06-05T06:44:18.302Z,13.43
2018-06-05T06:46:48.376Z,14.87
2018-06-05T06:49:17.952Z,15.07
2018-06-05T06:51:47.595Z,14.67
2018-06-05T06:54:17.317Z,15.33
2018-06-05T06:56:46.882Z,15.10
2018-06-05T06:59:16.499Z,16.47
2018-06-05T07:01:46.561Z,14.90
2018-06-05T07:04:16.247Z,15.90
2018-06-05T07:06:45.893Z,14.67
2018-06-05T07:09:15.547Z,15.03
2018-06-05T07:11:45.178Z,14.97
2018-06-05T07:14:14.496Z,16.20
2018-06-05T07:16:44.987Z,14.43
2018-06-05T07:19:14.599Z,15.20
2018-06-05T07:21:45.023Z,15.83
2018-06-05T07:24:14.605Z,15.67
2018-06-05T07:26:44.329Z,15.77
2018-06-05T07:29:13.951Z,16.23
2018-06-05T07:31:44.444Z,15.63
2018-06-05T07:34:14.056Z,14.77
2018-06-05T07:36:43.828Z,15.50
2018-06-05T07:39:13.682Z,14.57
2018-06-05T07:41:43.317Z,13.63
2018-06-05T07:44:12.976Z,15.30
2018-06-05T07:46:42.868Z,14.80
2018-06-05T07:49:12.605Z,14.23
2018-06-05T07:51:42.959Z,15.40
2018-06-05T07:54:12.585Z,14.60
2018-06-05T07:56:42.237Z,16.30
2018-06-05T07:59:11.857Z,15.03
2018-06-05T08:01:41.668Z,15.17
2018-06-05T08:04:11.283Z,14.83
2018-06-05T08:06:42.090Z,16.10
2018-06-05T08:09:12.012Z,15.80
2018-06-05T08:11:42.170Z,16.60
2018-06-05T08:14:11.855Z,14.47
2018-06-05T08:16:42.134Z,15.70
2018-06-05T08:19:11.748Z,15.87
2018-06-05T08:21:42.760Z,15.07
2018-06-05T08:24:12.821Z,14.50
2018-06-05T08:26:54.795Z,16.70
2018-06-05T08:29:24.470Z,15.00
2018-06-05T08:31:54.460Z,14.77
2018-06-05T08:34:24.057Z,15.50
2018-06-05T08:36:53.803Z,15.90
2018-06-05T08:39:23.528Z,15.67
2018-06-05T08:41:53.152Z,15.67
2018-06-05T08:44:22.447Z,16.13
2018-06-05T08:46:52.019Z,16.37
2018-06-05T08:49:21.728Z,15.63
2018-06-05T08:51:51.590Z,14.87
2018-06-05T08:54:21.171Z,15.20
2018-06-05T08:56:50.851Z,14.40
2018-06-05T08:59:20.404Z,14.30
2018-06-05T09:01:49.979Z,14.97
2018-06-05T09:04:19.707Z,13.77
2018-06-05T09:06:49.436Z,14.37
2018-06-05T09:09:19.142Z,13.47
2018-06-05T09:11:48.777Z,14.70
2018-06-05T09:14:18.349Z,14.47
2018-06-05T09:16:47.820Z,13.97
2018-06-05T09:19:17.548Z,15.13
2018-06-05T09:21:46.893Z,12.97
2018-06-05T09:24:16.518Z,12.73
2018-06-05T09:26:46.212Z,13.13
2018-06-05T09:29:15.779Z,13.70
2018-06-05T09:31:46.411Z,13.87
2018-06-05T09:34:16.067Z,11.93
2018-06-05T09:36:45.896Z,12.57
2018-06-05T09:39:15.536Z,12.57
2018-06-05T09:41:45.163Z,13.47
2018-06-05T09:44:14.740Z,14.20
2018-06-05T09:46:45.265Z,13.70
2018-06-05T09:49:14.603Z,13.57
2018-06-05T09:51:44.371Z,12.97
2018-06-05T09:54:13.954Z,14.07
2018-06-05T09:56:43.646Z,14.10
2018-06-05T09:59:13.315Z,13.60
2018-06-05T10:01:43.471Z,13.23
2018-06-05T10:04:13.084Z,15.33
2018-06-05T10:06:43.207Z,14.50
2018-06-05T10:09:13.070Z,13.77
2018-06-05T10:11:42.701Z,13.13
2018-06-05T10:14:12.414Z,13.87
2018-06-05T10:16:42.292Z,13.77
2018-06-05T10:19:11.947Z,14.37
2018-06-05T10:21:42.504Z,14.20
2018-06-05T10:24:12.119Z,12.70
2018-06-05T10:26:41.753Z,13.60
2018-06-05T10:29:11.398Z,12.63
2018-06-05T10:31:41.441Z,14.40
2018-06-05T10:34:10.945Z,13.07
2018-06-05T10:36:41.735Z,13.40
2018-06-05T10:39:11.523Z,12.67
2018-06-05T10:41:41.346Z,13.63
2018-06-05T10:44:11.069Z,12.30
2018-06-05T10:46:40.820Z,12.73
2018-06-05T10:49:10.407Z,12.43
2018-06-05T10:51:41.368Z,13.10
2018-06-05T10:54:10.943Z,13.53
2018-06-05T10:56:40.683Z,14.07
2018-06-05T10:59:10.364Z,13.03
2018-06-05T11:01:41.214Z,12.57
2018-06-05T11:04:10.829Z,12.70
2018-06-05T11:06:41.420Z,13.77
2018-06-05T11:09:11.044Z,12.40
2018-06-05T11:11:40.825Z,12.97
2018-06-05T11:14:10.484Z,12.93
2018-06-05T11:16:40.247Z,12.70
2018-06-05T11:19:09.882Z,12.47
2018-06-05T11:21:40.127Z,12.27
2018-06-05T11:24:09.790Z,12.40
2018-06-05T11:26:39.502Z,13.53
2018-06-05T11:29:09.189Z,12.27
2018-06-05T11:31:38.910Z,10.77
2018-06-05T11:34:08.640Z,12.47
2018-06-05T11:36:39.086Z,11.73
2018-06-05T11:39:09.617Z,12.00
2018-06-05T11:41:39.254Z,11.60
2018-06-05T11:44:09.005Z,10.20
2018-06-05T11:46:38.628Z,10.57
2018-06-05T11:49:08.622Z,11.63
2018-06-05T11:51:38.666Z,10.50
2018-06-05T11:54:09.154Z,9.73
2018-06-05T11:56:38.768Z,9.40
2018-06-05T11:59:09.315Z,9.13
2018-06-05T12:01:39.943Z,10.60
2018-06-05T12:04:09.776Z,10.57
2018-06-05T12:06:40.072Z,8.87
2018-06-05T12:09:09.961Z,8.83
2018-06-05T12:11:39.813Z,8.23
2018-06-05T12:14:09.927Z,8.97
2018-06-05T12:16:39.692Z,7.90
2018-06-05T12:19:10.168Z,7.70
2018-06-05T12:21:40.477Z,8.17
2018-06-05T12:24:10.382Z,8.80
2018-06-05T12:26:40.069Z,7.43
2018-06-05T12:29:10.188Z,7.57
2018-06-05T12:31:39.826Z,7.00
2018-06-05T12:34:10.358Z,8.30
2018-06-05T12:36:40.777Z,7.27
2018-06-05T12:39:11.224Z,7.27
2018-06-05T12:41:40.986Z,6.67
2018-06-05T12:44:11.339Z,6.10
2018-06-05T12:46:41.051Z,7.87
2018-06-05T12:49:11.388Z,8.30
2018-06-05T12:51:42.439Z,8.03
2018-06-05T12:54:12.298Z,8.53
2018-06-05T12:56:42.088Z,7.97
2018-06-05T12:59:12.128Z,7.77
2018-06-05T13:01:41.916Z,7.03
2018-06-05T13:04:12.409Z,6.13
2018-06-05T13:06:42.712Z,6.13
2018-06-05T13:09:12.866Z,6.13
2018-06-05T13:11:43.430Z,7.00
2018-06-05T13:14:13.172Z,6.30
2018-06-05T13:16:42.913Z,6.80
2018-06-05T13:19:13.142Z,5.97
2018-06-05T13:21:43.220Z,6.07
2018-06-05T13:24:13.590Z,5.77
2018-06-05T13:26:43.175Z,5.93
2018-06-05T13:29:13.648Z,6.87
2018-06-05T13:31:43.560Z,6.50
2018-06-05T13:34:14.097Z,7.27
2018-06-05T13:36:44.121Z,6.80
2018-06-05T13:39:14.272Z,7.40
2018-06-05T13:41:43.895Z,7.97
2018-06-05T13:44:14.065Z,7.80
2018-06-05T13:46:44.034Z,7.43
2018-06-05T13:49:14.197Z,7.87
2018-06-05T13:51:44.095Z,7.97
2018-06-05T13:54:14.114Z,6.87
2018-06-05T13:56:43.729Z,6.33
2018-06-05T13:59:14.026Z,6.67
2018-06-05T14:01:44.091Z,7.17
2018-06-05T14:04:14.216Z,7.90
2018-06-05T14:06:44.258Z,7.13
2018-06-05T14:09:20.996Z,6.47
2018-06-05T14:11:50.580Z,6.07
2018-06-05T14:14:20.113Z,7.37
2018-06-05T14:16:50.186Z,7.30
2018-06-05T14:19:19.758Z,7.27
2018-06-05T14:21:49.383Z,6.83
2018-06-05T14:24:19.016Z,6.77
2018-06-05T14:26:48.757Z,6.20
2018-06-05T14:29:18.327Z,7.17
2018-06-05T14:31:48.250Z,8.20
2018-06-05T14:34:17.872Z,7.53
2018-06-05T14:36:47.514Z,7.33
2018-06-05T14:39:17.602Z,8.87
2018-06-05T14:41:47.241Z,8.63
2018-06-05T14:44:17.974Z,8.00
2018-06-05T14:46:47.994Z,8.50
2018-06-05T14:49:17.939Z,7.87
2018-06-05T14:51:47.615Z,7.87
2018-06-05T14:54:18.038Z,7.97
2018-06-05T14:56:47.784Z,7.97
2018-06-05T14:59:17.598Z,8.40
2018-06-05T15:01:47.558Z,9.17
2018-06-05T15:04:18.103Z,9.47
2018-06-05T15:06:47.853Z,10.20
2018-06-05T15:09:18.412Z,11.13
2018-06-05T15:11:48.116Z,11.07
2018-06-05T15:14:18.796Z,11.07
2018-06-05T15:16:48.780Z,11.13
2018-06-05T15:19:19.255Z,11.83
2018-06-05T15:21:48.939Z,11.40
2018-06-05T15:24:19.370Z,10.97
2018-06-05T15:26:48.908Z,11.20
2018-06-05T15:29:19.310Z,11.77
2018-06-05T15:31:49.426Z,10.67
2018-06-05T15:34:19.881Z,10.83
2018-06-05T15:36:49.450Z,11.37
2018-06-05T15:39:20.146Z,10.93
2018-06-05T15:41:49.801Z,11.00
2018-06-05T15:44:20.125Z,10.80
2018-06-05T15:46:50.021Z,10.77
2018-06-05T15:49:20.418Z,8.77
2018-06-05T15:51:50.235Z,8.93
2018-06-05T15:54:20.783Z,9.70
2018-06-05T15:56:50.489Z,9.77
2018-06-05T15:59:20.994Z,10.47
2018-06-05T16:01:50.770Z,10.57
2018-06-05T16:04:21.289Z,10.07
2018-06-05T16:06:50.969Z,10.50
2018-06-05T16:09:21.467Z,9.80
2018-06-05T16:11:51.085Z,9.97
2018-06-05T16:14:21.479Z,10.17
2018-06-05T16:16:51.174Z,9.63
2018-06-05T16:19:21.466Z,11.03
2018-06-05T16:21:51.083Z,9.97
2018-06-05T16:24:21.637Z,10.50
2018-06-05T16:26:51.273Z,9.90
2018-06-05T16:29:21.223Z,10.10
2018-06-05T16:31:50.881Z,9.80
2018-06-05T16:34:21.107Z,10.17
2018-06-05T16:36:50.707Z,10.53
2018-06-05T16:39:21.282Z,10.80
2018-06-05T16:41:50.964Z,8.93
2018-06-05T16:44:20.893Z,10.33
2018-06-05T16:46:50.677Z,9.77
2018-06-05T16:49:20.909Z,10.13
2018-06-05T16:51:50.620Z,11.00
2018-06-05T16:54:20.606Z,10.00
2018-06-05T16:56:49.895Z,9.97
2018-06-05T16:59:19.552Z,9.73
2018-06-05T17:01:49.465Z,10.23
2018-06-05T17:04:19.164Z,10.17
2018-06-05T17:06:48.760Z,9.67
2018-06-05T17:09:18.487Z,9.43
2018-06-05T17:11:49.543Z,9.00
2018-06-05T17:14:19.563Z,9.00
2018-06-05T17:16:49.475Z,9.57
2018-06-05T17:19:19.127Z,9.63
2018-06-05T17:21:48.751Z,9.13
2018-06-05T17:24:18.480Z,9.00
2018-06-05T17:26:48.127Z,8.20
2018-06-05T17:29:17.812Z,9.07
2018-06-05T17:31:48.592Z,8.60
2018-06-05T17:34:18.249Z,8.80
2018-06-05T17:36:47.841Z,8.63
2018-06-05T17:39:21.073Z,8.50
2018-06-05T17:41:51.251Z,8.73
2018-06-05T17:44:21.376Z,9.20
2018-06-05T17:46:55.449Z,8.87
2018-06-05T17:49:26.624Z,8.50
2018-06-05T17:51:56.237Z,8.83
2018-06-05T17:54:26.400Z,8.73
2018-06-05T17:56:56.067Z,8.43
2018-06-05T17:59:26.548Z,9.17
2018-06-05T18:01:56.131Z,9.27
2018-06-05T18:04:26.463Z,8.70
2018-06-05T18:06:56.107Z,8.70
2018-06-05T18:09:26.355Z,9.33
2018-06-05T18:11:55.932Z,9.43
2018-06-05T18:14:26.495Z,9.67
2018-06-05T18:16:56.069Z,6.17
2018-06-05T18:19:26.621Z,3.97
2018-06-05T18:21:56.245Z,2.70
2018-06-05T18:24:26.453Z,3.17
2018-06-05T18:26:56.066Z,2.47
2018-06-05T18:29:26.206Z,2.37
2018-06-05T18:31:56.414Z,2.50
2018-06-05T18:34:26.395Z,2.80
2018-06-05T18:36:56.066Z,3.03
2018-06-05T18:39:25.969Z,2.70
2018-06-05T18:41:56.142Z,2.20
2018-06-05T18:44:26.263Z,2.57
2018-06-05T18:46:55.897Z,2.53
2018-06-05T18:49:25.782Z,1.97
2018-06-05T18:51:55.408Z,2.23
2018-06-05T18:54:24.996Z,2.20
2018-06-05T18:56:54.616Z,2.50
2018-06-05T18:59:24.224Z,2.40
2018-06-05T19:01:53.853Z,1.93
2018-06-05T19:04:23.490Z,2.07
2018-06-05T19:06:53.086Z,2.13
2018-06-05T19:09:22.736Z,2.10
2018-06-05T19:11:52.324Z,1.90
2018-06-05T19:14:21.909Z,2.20
2018-06-05T19:16:51.728Z,1.77
2018-06-05T19:19:21.322Z,1.70
2018-06-05T19:21:50.933Z,1.67
2018-06-05T19:24:20.198Z,1.67
2018-06-05T19:26:49.760Z,2.00
2018-06-05T19:29:19.430Z,2.20
2018-06-05T19:31:49.485Z,2.57
2018-06-05T19:34:19.058Z,1.80
2018-06-05T19:36:48.617Z,2.00
2018-06-05T19:39:18.215Z,2.17
2018-06-05T19:41:47.747Z,2.10
2018-06-05T19:44:17.355Z,2.20
2018-06-05T19:46:48.003Z,1.67
2018-06-05T19:49:17.610Z,2.10
2018-06-05T19:51:47.164Z,2.10
2018-06-05T19:54:16.730Z,1.73
2018-06-05T19:56:46.326Z,2.00
2018-06-05T19:59:16.028Z,1.47
2018-06-05T20:01:46.605Z,1.70
2018-06-05T20:04:16.193Z,2.10
2018-06-05T20:06:45.857Z,1.63
2018-06-05T20:09:15.455Z,2.17
2018-06-05T20:11:45.684Z,1.73
2018-06-05T20:14:15.290Z,1.70
2018-06-05T20:16:45.447Z,1.77
2018-06-05T20:19:15.057Z,1.70
2018-06-05T20:21:44.958Z,1.60
2018-06-05T20:24:14.540Z,1.80
2018-06-05T20:26:45.310Z,1.60
2018-06-05T20:29:15.445Z,1.33
2018-06-05T20:31:45.711Z,1.60
2018-06-05T20:34:15.336Z,1.73
2018-06-05T20:36:45.364Z,1.50
2018-06-05T20:39:15.035Z,1.63
2018-06-05T20:41:44.667Z,1.90
2018-06-05T20:44:14.180Z,1.90
2018-06-05T20:46:43.762Z,1.73
2018-06-05T20:49:13.663Z,1.80
2018-06-05T20:51:43.828Z,1.60
2018-06-05T20:54:13.414Z,2.07
2018-06-05T20:56:42.957Z,1.67
2018-06-05T20:59:12.213Z,1.93
2018-06-05T21:01:42.339Z,1.90
2018-06-05T21:04:11.862Z,2.27
2018-06-05T21:06:42.573Z,1.80
2018-06-05T21:09:18.295Z,1.90
2018-06-05T21:11:48.360Z,1.50
2018-06-05T21:14:17.970Z,1.83
2018-06-05T21:16:48.324Z,1.70
2018-06-05T21:19:17.937Z,1.53
2018-06-05T21:21:47.502Z,1.70
2018-06-05T21:24:17.054Z,1.90
2018-06-05T21:26:46.608Z,1.83
2018-06-05T21:29:16.165Z,2.30
2018-06-05T21:31:46.165Z,1.83
2018-06-05T21:34:15.752Z,2.20
2018-06-05T21:36:45.456Z,1.60
2018-06-05T21:39:14.978Z,1.73
2018-06-05T21:41:44.460Z,1.80
2018-06-05T21:44:14.001Z,2.10
2018-06-05T21:46:44.164Z,1.83
2018-06-05T21:49:13.988Z,1.93
2018-06-05T21:51:44.026Z,1.70
2018-06-05T21:54:13.849Z,2.10
2018-06-05T21:56:43.687Z,1.90
2018-06-05T21:59:13.237Z,2.37
2018-06-05T22:01:43.091Z,1.70
2018-06-05T22:04:12.660Z,2.27
2018-06-05T22:06:42.907Z,1.97
2018-06-05T22:09:12.480Z,1.70
2018-06-05T22:11:43.053Z,2.10
2018-06-05T22:14:12.672Z,2.03
2018-06-05T22:16:42.460Z,2.17
2018-06-05T22:19:12.029Z,2.30
2018-06-05T22:21:43.153Z,2.23
2018-06-05T22:24:12.944Z,1.63
2018-06-05T22:26:42.652Z,2.30
2018-06-05T22:29:12.204Z,1.73
2018-06-05T22:31:41.891Z,1.80
2018-06-05T22:34:11.449Z,2.00
2018-06-05T22:36:42.169Z,1.27
2018-06-05T22:39:11.737Z,2.10
2018-06-05T22:41:41.278Z,1.80
2018-06-05T22:44:10.804Z,1.97
2018-06-05T22:46:40.449Z,1.70
2018-06-05T22:49:10.014Z,1.83
2018-06-05T22:51:40.241Z,1.90
2018-06-05T22:54:09.808Z,1.90
2018-06-05T22:56:39.401Z,2.03
2018-06-05T22:59:09.039Z,1.77
2018-06-05T23:01:39.081Z,2.07
2018-06-05T23:04:08.720Z,1.90
2018-06-05T23:06:39.067Z,1.90
2018-06-05T23:09:08.781Z,1.77
2018-06-05T23:11:38.342Z,2.20
2018-06-05T23:14:07.875Z,1.90
2018-06-05T23:16:37.474Z,1.67
2018-06-05T23:19:07.018Z,2.53
2018-06-05T23:21:36.552Z,1.90
2018-06-05T23:24:06.120Z,2.33
2018-06-05T23:26:35.667Z,2.03
2018-06-05T23:29:05.326Z,1.97
2018-06-05T23:31:35.564Z,1.67
2018-06-05T23:34:05.090Z,2.07
2018-06-05T23:36:34.622Z,1.50
2018-06-05T23:39:04.686Z,1.47
2018-06-05T23:41:34.977Z,1.80
2018-06-05T23:44:04.627Z,1.63
2018-06-05T23:46:34.217Z,2.27
2018-06-05T23:49:03.759Z,2.00
2018-06-05T23:51:34.139Z,1.90
2018-06-05T23:54:03.624Z,2.13
2018-06-05T23:56:33.217Z,2.00
2018-06-05T23:59:02.895Z,1.93
